sensor_id;sensor_type;location;lat;lon;timestamp;temperature;humidity
9167;DHT22;4618;48.818;9.088;2022-10-19T00:01:20;12.00;1.00
9167;DHT22;4618;48.818;9.088;2022-10-19T00:03:49;12.00;1.00
9167;DHT22;4618;48.818;9.088;2022-10-19T00:06:16;12.00;1.00
9167;DHT22;4618;48.818;9.088;2022-10-19T00:08:43;11.90;1.00
9167;DHT22;4618;48.818;9.088;2022-10-19T00:11:09;11.70;1.00
9167;DHT22;4618;48.818;9.088;2022-10-19T00:13:35;11.70;1.00
9167;DHT22;4618;48.818;9.088;2022-10-19T00:16:05;11.70;1.00
9167;DHT22;4618;48.818;9.088;2022-10-19T00:18:31;11.70;1.00
9167;DHT22;4618;48.818;9.088;2022-10-19T00:21:08;11.60;1.00
9167;DHT22;4618;48.818;9.088;2022-10-19T00:23:34;11.50;1.00
9167;DHT22;4618;48.818;9.088;2022-10-19T00:26:00;11.50;1.00
9167;DHT22;4618;48.818;9.088;2022-10-19T00:28:27;11.40;1.00
9167;DHT22;4618;48.818;9.088;2022-10-19T00:30:53;11.30;1.00
9167;DHT22;4618;48.818;9.088;2022-10-19T00:33:19;11.10;1.00
9167;DHT22;4618;48.818;9.088;2022-10-19T00:35:50;11.00;1.00
9167;DHT22;4618;48.818;9.088;2022-10-19T00:38:18;11.00;1.00
9167;DHT22;4618;48.818;9.088;2022-10-19T00:40:44;10.90;1.00
9167;DHT22;4618;48.818;9.088;2022-10-19T00:43:15;10.90;1.00
9167;DHT22;4618;48.818;9.088;2022-10-19T00:45:41;10.90;1.00
9167;DHT22;4618;48.818;9.088;2022-10-19T00:48:08;11.00;1.00
9167;DHT22;4618;48.818;9.088;2022-10-19T00:50:35;11.10;1.00
9167;DHT22;4618;48.818;9.088;2022-10-19T00:53:01;11.10;1.00
9167;DHT22;4618;48.818;9.088;2022-10-19T00:55:26;11.30;99.90
9167;DHT22;4618;48.818;9.088;2022-10-19T00:57:52;11.40;99.90
9167;DHT22;4618;48.818;9.088;2022-10-19T01:00:18;11.40;99.90
9167;DHT22;4618;48.818;9.088;2022-10-19T01:02:43;11.40;1.00
9167;DHT22;4618;48.818;9.088;2022-10-19T01:05:10;11.40;1.00
9167;DHT22;4618;48.818;9.088;2022-10-19T01:07:36;11.40;1.00
9167;DHT22;4618;48.818;9.088;2022-10-19T01:10:02;11.60;1.00
9167;DHT22;4618;48.818;9.088;2022-10-19T01:17:56;11.60;1.00
9167;DHT22;4618;48.818;9.088;2022-10-19T01:32:03;12.10;1.00
9167;DHT22;4618;48.818;9.088;2022-10-19T01:34:45;12.20;1.00
9167;DHT22;4618;48.818;9.088;2022-10-19T01:37:20;12.30;1.00
9167;DHT22;4618;48.818;9.088;2022-10-19T01:40:14;12.30;1.00
9167;DHT22;4618;48.818;9.088;2022-10-19T01:45:51;12.20;1.00
9167;DHT22;4618;48.818;9.088;2022-10-19T01:48:22;12.20;1.00
9167;DHT22;4618;48.818;9.088;2022-10-19T01:50:53;12.20;1.00
9167;DHT22;4618;48.818;9.088;2022-10-19T01:53:22;12.30;1.00
9167;DHT22;4618;48.818;9.088;2022-10-19T01:55:50;12.40;1.00
9167;DHT22;4618;48.818;9.088;2022-10-19T01:58:24;12.40;1.00
9167;DHT22;4618;48.818;9.088;2022-10-19T02:00:52;12.50;1.00
9167;DHT22;4618;48.818;9.088;2022-10-19T02:03:19;12.60;1.00
9167;DHT22;4618;48.818;9.088;2022-10-19T02:05:46;12.60;1.00
9167;DHT22;4618;48.818;9.088;2022-10-19T02:08:18;12.60;1.00
9167;DHT22;4618;48.818;9.088;2022-10-19T02:10:45;12.50;1.00
9167;DHT22;4618;48.818;9.088;2022-10-19T02:13:13;12.50;1.00
9167;DHT22;4618;48.818;9.088;2022-10-19T02:15:41;12.30;41.70
9167;DHT22;4618;48.818;9.088;2022-10-19T02:18:09;12.30;83.50
9167;DHT22;4618;48.818;9.088;2022-10-19T02:20:36;12.30;91.90
9167;DHT22;4618;48.818;9.088;2022-10-19T02:23:06;12.50;98.20
9167;DHT22;4618;48.818;9.088;2022-10-19T02:25:32;12.60;93.80
9167;DHT22;4618;48.818;9.088;2022-10-19T02:28:00;12.70;98.50
9167;DHT22;4618;48.818;9.088;2022-10-19T02:30:26;12.60;99.90
9167;DHT22;4618;48.818;9.088;2022-10-19T02:32:52;12.70;99.90
9167;DHT22;4618;48.818;9.088;2022-10-19T02:35:17;12.70;99.90
9167;DHT22;4618;48.818;9.088;2022-10-19T02:37:43;12.70;99.90
9167;DHT22;4618;48.818;9.088;2022-10-19T02:40:11;12.80;99.90
9167;DHT22;4618;48.818;9.088;2022-10-19T02:42:44;12.80;99.90
9167;DHT22;4618;48.818;9.088;2022-10-19T02:45:18;12.90;99.90
9167;DHT22;4618;48.818;9.088;2022-10-19T02:47:56;13.00;99.90
9167;DHT22;4618;48.818;9.088;2022-10-19T02:50:23;12.90;99.90
9167;DHT22;4618;48.818;9.088;2022-10-19T02:52:49;13.00;99.90
9167;DHT22;4618;48.818;9.088;2022-10-19T02:55:14;13.00;99.90
9167;DHT22;4618;48.818;9.088;2022-10-19T02:57:40;12.90;99.90
9167;DHT22;4618;48.818;9.088;2022-10-19T03:00:07;12.90;99.90
9167;DHT22;4618;48.818;9.088;2022-10-19T03:02:32;12.90;99.90
9167;DHT22;4618;48.818;9.088;2022-10-19T03:04:58;13.10;99.90
9167;DHT22;4618;48.818;9.088;2022-10-19T03:07:24;13.10;99.90
9167;DHT22;4618;48.818;9.088;2022-10-19T03:09:49;13.20;99.90
9167;DHT22;4618;48.818;9.088;2022-10-19T03:12:15;13.20;99.90
9167;DHT22;4618;48.818;9.088;2022-10-19T03:14:41;13.30;99.90
9167;DHT22;4618;48.818;9.088;2022-10-19T03:17:08;13.30;99.90
9167;DHT22;4618;48.818;9.088;2022-10-19T03:19:34;13.30;99.90
9167;DHT22;4618;48.818;9.088;2022-10-19T03:22:00;13.20;99.90
9167;DHT22;4618;48.818;9.088;2022-10-19T03:24:26;13.20;99.90
9167;DHT22;4618;48.818;9.088;2022-10-19T03:26:51;13.30;99.90
9167;DHT22;4618;48.818;9.088;2022-10-19T03:29:17;13.20;99.90
9167;DHT22;4618;48.818;9.088;2022-10-19T03:31:43;13.10;99.90
9167;DHT22;4618;48.818;9.088;2022-10-19T03:34:08;13.20;99.90
9167;DHT22;4618;48.818;9.088;2022-10-19T03:36:36;13.20;99.90
9167;DHT22;4618;48.818;9.088;2022-10-19T03:39:13;13.10;99.90
9167;DHT22;4618;48.818;9.088;2022-10-19T03:41:39;13.20;99.90
9167;DHT22;4618;48.818;9.088;2022-10-19T03:44:07;13.20;99.90
9167;DHT22;4618;48.818;9.088;2022-10-19T03:46:33;13.20;99.90
9167;DHT22;4618;48.818;9.088;2022-10-19T03:49:00;13.20;99.90
9167;DHT22;4618;48.818;9.088;2022-10-19T03:51:27;13.30;99.90
9167;DHT22;4618;48.818;9.088;2022-10-19T03:53:54;13.20;99.90
9167;DHT22;4618;48.818;9.088;2022-10-19T03:56:22;13.30;99.90
9167;DHT22;4618;48.818;9.088;2022-10-19T03:58:50;13.30;99.90
9167;DHT22;4618;48.818;9.088;2022-10-19T04:01:36;13.30;99.90
9167;DHT22;4618;48.818;9.088;2022-10-19T04:04:09;13.40;99.90
9167;DHT22;4618;48.818;9.088;2022-10-19T04:06:37;13.20;99.90
9167;DHT22;4618;48.818;9.088;2022-10-19T04:09:04;13.30;99.90
9167;DHT22;4618;48.818;9.088;2022-10-19T04:11:32;13.30;99.90
9167;DHT22;4618;48.818;9.088;2022-10-19T04:13:59;13.40;99.90
9167;DHT22;4618;48.818;9.088;2022-10-19T04:16:26;13.30;99.90
9167;DHT22;4618;48.818;9.088;2022-10-19T04:18:52;13.20;99.90
9167;DHT22;4618;48.818;9.088;2022-10-19T04:21:29;13.10;99.90
9167;DHT22;4618;48.818;9.088;2022-10-19T04:24:01;13.10;99.90
9167;DHT22;4618;48.818;9.088;2022-10-19T04:26:26;13.20;99.90
9167;DHT22;4618;48.818;9.088;2022-10-19T04:28:52;13.20;99.90
9167;DHT22;4618;48.818;9.088;2022-10-19T04:31:18;13.10;99.90
9167;DHT22;4618;48.818;9.088;2022-10-19T04:33:44;13.10;99.90
9167;DHT22;4618;48.818;9.088;2022-10-19T04:36:11;13.10;99.90
9167;DHT22;4618;48.818;9.088;2022-10-19T04:38:37;13.10;99.90
9167;DHT22;4618;48.818;9.088;2022-10-19T04:41:05;13.10;97.30
9167;DHT22;4618;48.818;9.088;2022-10-19T04:43:31;13.20;93.30
9167;DHT22;4618;48.818;9.088;2022-10-19T04:46:00;13.20;96.40
9167;DHT22;4618;48.818;9.088;2022-10-19T04:48:26;13.20;99.90
9167;DHT22;4618;48.818;9.088;2022-10-19T04:50:53;13.20;99.90
9167;DHT22;4618;48.818;9.088;2022-10-19T04:53:19;13.20;99.90
9167;DHT22;4618;48.818;9.088;2022-10-19T04:55:45;13.10;99.90
9167;DHT22;4618;48.818;9.088;2022-10-19T04:58:10;13.20;99.90
9167;DHT22;4618;48.818;9.088;2022-10-19T05:00:37;13.30;99.90
9167;DHT22;4618;48.818;9.088;2022-10-19T05:03:03;13.30;99.90
9167;DHT22;4618;48.818;9.088;2022-10-19T05:05:28;13.30;99.90
9167;DHT22;4618;48.818;9.088;2022-10-19T05:07:54;13.40;99.90
9167;DHT22;4618;48.818;9.088;2022-10-19T05:10:20;13.40;99.90
9167;DHT22;4618;48.818;9.088;2022-10-19T05:12:45;13.50;99.90
9167;DHT22;4618;48.818;9.088;2022-10-19T05:15:11;13.50;99.90
9167;DHT22;4618;48.818;9.088;2022-10-19T05:17:36;13.50;99.90
9167;DHT22;4618;48.818;9.088;2022-10-19T05:20:02;13.60;99.90
9167;DHT22;4618;48.818;9.088;2022-10-19T05:22:28;13.60;99.90
9167;DHT22;4618;48.818;9.088;2022-10-19T05:24:53;13.70;99.90
9167;DHT22;4618;48.818;9.088;2022-10-19T05:27:19;13.70;99.90
9167;DHT22;4618;48.818;9.088;2022-10-19T05:29:44;13.60;99.90
9167;DHT22;4618;48.818;9.088;2022-10-19T05:32:10;13.60;99.90
9167;DHT22;4618;48.818;9.088;2022-10-19T05:34:35;13.60;99.90
9167;DHT22;4618;48.818;9.088;2022-10-19T05:37:01;13.60;99.90
9167;DHT22;4618;48.818;9.088;2022-10-19T05:39:26;13.70;99.90
9167;DHT22;4618;48.818;9.088;2022-10-19T05:41:52;13.70;99.90
9167;DHT22;4618;48.818;9.088;2022-10-19T05:44:22;13.70;99.90
9167;DHT22;4618;48.818;9.088;2022-10-19T05:46:49;13.70;99.90
9167;DHT22;4618;48.818;9.088;2022-10-19T05:49:16;13.70;99.90
9167;DHT22;4618;48.818;9.088;2022-10-19T05:51:42;13.70;99.90
9167;DHT22;4618;48.818;9.088;2022-10-19T05:54:10;13.70;99.90
9167;DHT22;4618;48.818;9.088;2022-10-19T05:56:36;13.70;99.90
9167;DHT22;4618;48.818;9.088;2022-10-19T05:59:04;13.70;96.20
9167;DHT22;4618;48.818;9.088;2022-10-19T06:01:31;13.70;79.60
9167;DHT22;4618;48.818;9.088;2022-10-19T06:03:57;13.70;62.40
9167;DHT22;4618;48.818;9.088;2022-10-19T06:06:24;13.70;55.80
9167;DHT22;4618;48.818;9.088;2022-10-19T06:08:51;13.80;49.90
9167;DHT22;4618;48.818;9.088;2022-10-19T06:11:25;13.80;53.20
9167;DHT22;4618;48.818;9.088;2022-10-19T06:13:53;13.80;53.70
9167;DHT22;4618;48.818;9.088;2022-10-19T06:16:20;13.80;73.60
9167;DHT22;4618;48.818;9.088;2022-10-19T06:18:48;13.80;97.00
9167;DHT22;4618;48.818;9.088;2022-10-19T06:21:17;13.80;99.90
9167;DHT22;4618;48.818;9.088;2022-10-19T06:23:43;13.80;99.90
9167;DHT22;4618;48.818;9.088;2022-10-19T06:26:11;13.90;99.90
9167;DHT22;4618;48.818;9.088;2022-10-19T06:28:38;13.90;99.90
9167;DHT22;4618;48.818;9.088;2022-10-19T06:31:05;14.00;99.90
9167;DHT22;4618;48.818;9.088;2022-10-19T06:33:31;14.00;99.90
9167;DHT22;4618;48.818;9.088;2022-10-19T06:36:13;14.10;99.90
9167;DHT22;4618;48.818;9.088;2022-10-19T06:38:39;14.20;99.90
9167;DHT22;4618;48.818;9.088;2022-10-19T06:41:05;14.10;99.90
9167;DHT22;4618;48.818;9.088;2022-10-19T06:43:31;14.10;99.90
9167;DHT22;4618;48.818;9.088;2022-10-19T06:45:57;14.10;99.90
9167;DHT22;4618;48.818;9.088;2022-10-19T06:48:23;14.10;99.90
9167;DHT22;4618;48.818;9.088;2022-10-19T06:50:55;14.20;99.90
9167;DHT22;4618;48.818;9.088;2022-10-19T06:53:21;14.10;99.90
9167;DHT22;4618;48.818;9.088;2022-10-19T06:55:47;14.00;99.90
9167;DHT22;4618;48.818;9.088;2022-10-19T06:58:12;13.90;99.90
9167;DHT22;4618;48.818;9.088;2022-10-19T07:00:38;14.00;99.90
9167;DHT22;4618;48.818;9.088;2022-10-19T07:03:03;14.00;99.90
9167;DHT22;4618;48.818;9.088;2022-10-19T07:05:29;14.10;99.90
9167;DHT22;4618;48.818;9.088;2022-10-19T07:07:56;14.10;99.90
9167;DHT22;4618;48.818;9.088;2022-10-19T07:10:22;14.30;99.90
9167;DHT22;4618;48.818;9.088;2022-10-19T07:12:47;14.30;99.90
9167;DHT22;4618;48.818;9.088;2022-10-19T07:15:13;14.30;99.90
9167;DHT22;4618;48.818;9.088;2022-10-19T07:17:38;14.40;99.90
9167;DHT22;4618;48.818;9.088;2022-10-19T07:20:04;14.40;99.90
9167;DHT22;4618;48.818;9.088;2022-10-19T07:22:30;14.60;99.90
9167;DHT22;4618;48.818;9.088;2022-10-19T07:24:56;14.70;99.90
9167;DHT22;4618;48.818;9.088;2022-10-19T07:27:23;14.80;99.90
9167;DHT22;4618;48.818;9.088;2022-10-19T07:29:48;14.90;99.90
9167;DHT22;4618;48.818;9.088;2022-10-19T07:32:14;15.00;99.90
9167;DHT22;4618;48.818;9.088;2022-10-19T07:34:40;15.10;83.30
9167;DHT22;4618;48.818;9.088;2022-10-19T07:37:05;15.20;1.00
9167;DHT22;4618;48.818;9.088;2022-10-19T07:39:31;15.40;1.00
9167;DHT22;4618;48.818;9.088;2022-10-19T07:41:57;15.60;1.00
9167;DHT22;4618;48.818;9.088;2022-10-19T07:44:22;15.70;99.90
9167;DHT22;4618;48.818;9.088;2022-10-19T07:46:48;15.90;1.00
9167;DHT22;4618;48.818;9.088;2022-10-19T07:49:15;16.20;99.90
9167;DHT22;4618;48.818;9.088;2022-10-19T07:51:44;16.30;99.90
9167;DHT22;4618;48.818;9.088;2022-10-19T07:54:10;16.30;1.00
9167;DHT22;4618;48.818;9.088;2022-10-19T07:56:36;16.60;99.90
9167;DHT22;4618;48.818;9.088;2022-10-19T07:59:01;16.90;1.00
9167;DHT22;4618;48.818;9.088;2022-10-19T08:01:31;17.00;1.00
9167;DHT22;4618;48.818;9.088;2022-10-19T08:03:58;17.20;1.00
9167;DHT22;4618;48.818;9.088;2022-10-19T08:06:25;17.10;99.90
9167;DHT22;4618;48.818;9.088;2022-10-19T08:08:52;17.20;1.00
9167;DHT22;4618;48.818;9.088;2022-10-19T08:11:21;17.20;24.50
9167;DHT22;4618;48.818;9.088;2022-10-19T08:13:48;17.40;14.00
9167;DHT22;4618;48.818;9.088;2022-10-19T08:16:40;17.60;1.00
9167;DHT22;4618;48.818;9.088;2022-10-19T08:19:16;17.60;99.90
9167;DHT22;4618;48.818;9.088;2022-10-19T08:21:44;17.50;99.90
9167;DHT22;4618;48.818;9.088;2022-10-19T08:24:14;17.20;99.90
9167;DHT22;4618;48.818;9.088;2022-10-19T08:26:41;17.00;1.00
9167;DHT22;4618;48.818;9.088;2022-10-19T08:29:10;17.20;99.90
9167;DHT22;4618;48.818;9.088;2022-10-19T08:31:36;17.00;1.00
9167;DHT22;4618;48.818;9.088;2022-10-19T08:34:02;17.00;1.00
9167;DHT22;4618;48.818;9.088;2022-10-19T08:36:28;16.70;1.00
9167;DHT22;4618;48.818;9.088;2022-10-19T08:38:56;16.70;1.00
9167;DHT22;4618;48.818;9.088;2022-10-19T08:49:52;16.80;99.90
9167;DHT22;4618;48.818;9.088;2022-10-19T08:52:21;16.80;1.00
9167;DHT22;4618;48.818;9.088;2022-10-19T08:54:50;16.90;1.00
9167;DHT22;4618;48.818;9.088;2022-10-19T09:00:07;16.90;99.90
9167;DHT22;4618;48.818;9.088;2022-10-19T09:03:14;16.90;99.90
9167;DHT22;4618;48.818;9.088;2022-10-19T09:08:24;16.90;99.90
9167;DHT22;4618;48.818;9.088;2022-10-19T09:10:52;16.90;96.50
9167;DHT22;4618;48.818;9.088;2022-10-19T09:13:40;16.90;1.00
9167;DHT22;4618;48.818;9.088;2022-10-19T09:16:12;17.00;1.00
9167;DHT22;4618;48.818;9.088;2022-10-19T09:18:38;17.20;1.00
9167;DHT22;4618;48.818;9.088;2022-10-19T09:21:11;17.20;99.90
9167;DHT22;4618;48.818;9.088;2022-10-19T09:24:22;17.20;1.00
9167;DHT22;4618;48.818;9.088;2022-10-19T09:26:33;17.20;99.90
9167;DHT22;4618;48.818;9.088;2022-10-19T09:30:01;17.30;70.00
9167;DHT22;4618;48.818;9.088;2022-10-19T09:31:58;17.10;99.90
9167;DHT22;4618;48.818;9.088;2022-10-19T09:34:31;17.10;1.00
9167;DHT22;4618;48.818;9.088;2022-10-19T09:36:59;17.20;1.00
9167;DHT22;4618;48.818;9.088;2022-10-19T09:39:26;17.40;99.90
9167;DHT22;4618;48.818;9.088;2022-10-19T09:44:49;17.10;99.90
9167;DHT22;4618;48.818;9.088;2022-10-19T09:47:35;17.00;1.00
9167;DHT22;4618;48.818;9.088;2022-10-19T09:50:25;16.80;1.00
9167;DHT22;4618;48.818;9.088;2022-10-19T09:52:51;16.70;1.00
9167;DHT22;4618;48.818;9.088;2022-10-19T09:55:37;16.70;34.90
9167;DHT22;4618;48.818;9.088;2022-10-19T10:00:46;16.70;48.10
9167;DHT22;4618;48.818;9.088;2022-10-19T10:03:36;16.60;8.70
9167;DHT22;4618;48.818;9.088;2022-10-19T10:08:33;16.50;99.90
9167;DHT22;4618;48.818;9.088;2022-10-19T10:11:38;16.40;99.90
9167;DHT22;4618;48.818;9.088;2022-10-19T10:13:57;16.40;1.00
9167;DHT22;4618;48.818;9.088;2022-10-19T10:16:28;16.40;99.90
9167;DHT22;4618;48.818;9.088;2022-10-19T10:19:04;16.40;1.00
9167;DHT22;4618;48.818;9.088;2022-10-19T10:21:33;16.40;1.00
9167;DHT22;4618;48.818;9.088;2022-10-19T10:24:20;16.30;1.00
9167;DHT22;4618;48.818;9.088;2022-10-19T10:26:52;16.30;99.90
9167;DHT22;4618;48.818;9.088;2022-10-19T10:29:30;16.30;1.00
9167;DHT22;4618;48.818;9.088;2022-10-19T10:31:59;16.50;99.90
9167;DHT22;4618;48.818;9.088;2022-10-19T10:36:56;16.60;99.90
9167;DHT22;4618;48.818;9.088;2022-10-19T10:39:22;16.70;49.80
9167;DHT22;4618;48.818;9.088;2022-10-19T10:41:50;17.00;1.00
9167;DHT22;4618;48.818;9.088;2022-10-19T10:44:22;17.20;1.00
9167;DHT22;4618;48.818;9.088;2022-10-19T10:47:00;17.30;99.90
9167;DHT22;4618;48.818;9.088;2022-10-19T10:49:28;17.60;18.80
9167;DHT22;4618;48.818;9.088;2022-10-19T10:51:59;17.70;1.00
9167;DHT22;4618;48.818;9.088;2022-10-19T10:54:29;17.90;1.00
9167;DHT22;4618;48.818;9.088;2022-10-19T10:57:02;18.00;99.90
9167;DHT22;4618;48.818;9.088;2022-10-19T10:59:36;17.80;99.90
9167;DHT22;4618;48.818;9.088;2022-10-19T11:05:02;17.90;99.90
9167;DHT22;4618;48.818;9.088;2022-10-19T11:07:31;18.00;99.90
9167;DHT22;4618;48.818;9.088;2022-10-19T11:10:01;18.00;99.90
9167;DHT22;4618;48.818;9.088;2022-10-19T11:12:36;18.00;99.90
9167;DHT22;4618;48.818;9.088;2022-10-19T11:15:21;17.90;99.90
9167;DHT22;4618;48.818;9.088;2022-10-19T11:18:24;17.70;1.00
9167;DHT22;4618;48.818;9.088;2022-10-19T11:24:17;18.10;99.90
9167;DHT22;4618;48.818;9.088;2022-10-19T11:32:26;18.20;99.90
9167;DHT22;4618;48.818;9.088;2022-10-19T11:35:05;18.20;99.90
9167;DHT22;4618;48.818;9.088;2022-10-19T11:37:52;18.20;99.90
9167;DHT22;4618;48.818;9.088;2022-10-19T11:40:25;18.20;99.90
9167;DHT22;4618;48.818;9.088;2022-10-19T11:45:53;18.70;1.00
9167;DHT22;4618;48.818;9.088;2022-10-19T11:51:21;18.40;1.00
9167;DHT22;4618;48.818;9.088;2022-10-19T11:54:22;18.50;1.00
9167;DHT22;4618;48.818;9.088;2022-10-19T12:02:38;18.20;99.90
9167;DHT22;4618;48.818;9.088;2022-10-19T12:05:12;18.10;99.90
9167;DHT22;4618;48.818;9.088;2022-10-19T12:10:17;18.40;99.90
9167;DHT22;4618;48.818;9.088;2022-10-19T12:12:52;18.70;1.00
9167;DHT22;4618;48.818;9.088;2022-10-19T12:15:27;19.20;1.00
9167;DHT22;4618;48.818;9.088;2022-10-19T12:17:58;19.70;44.90
9167;DHT22;4618;48.818;9.088;2022-10-19T12:20:36;19.60;1.00
9167;DHT22;4618;48.818;9.088;2022-10-19T12:23:30;19.80;1.00
9167;DHT22;4618;48.818;9.088;2022-10-19T12:26:00;19.80;1.00
9167;DHT22;4618;48.818;9.088;2022-10-19T12:28:38;19.60;1.00
9167;DHT22;4618;48.818;9.088;2022-10-19T12:31:05;19.40;1.00
9167;DHT22;4618;48.818;9.088;2022-10-19T12:42:39;20.20;99.90
9167;DHT22;4618;48.818;9.088;2022-10-19T12:45:34;20.40;99.90
9167;DHT22;4618;48.818;9.088;2022-10-19T12:53:31;23.50;99.90
9167;DHT22;4618;48.818;9.088;2022-10-19T13:01:06;26.40;52.10
9167;DHT22;4618;48.818;9.088;2022-10-19T13:03:38;25.80;99.90
9167;DHT22;4618;48.818;9.088;2022-10-19T13:06:11;24.40;1.00
9167;DHT22;4618;48.818;9.088;2022-10-19T13:11:18;24.70;1.00
9167;DHT22;4618;48.818;9.088;2022-10-19T13:21:51;26.40;99.90
9167;DHT22;4618;48.818;9.088;2022-10-19T13:29:48;24.10;1.00
9167;DHT22;4618;48.818;9.088;2022-10-19T13:32:49;23.80;1.00
9167;DHT22;4618;48.818;9.088;2022-10-19T13:35:33;24.20;1.00
9167;DHT22;4618;48.818;9.088;2022-10-19T13:38:10;23.90;99.90
9167;DHT22;4618;48.818;9.088;2022-10-19T13:43:25;23.10;1.00
9167;DHT22;4618;48.818;9.088;2022-10-19T13:58:09;24.70;99.90
9167;DHT22;4618;48.818;9.088;2022-10-19T14:06:26;24.40;99.90
9167;DHT22;4618;48.818;9.088;2022-10-19T14:09:39;24.10;99.90
9167;DHT22;4618;48.818;9.088;2022-10-19T14:12:22;24.80;99.90
9167;DHT22;4618;48.818;9.088;2022-10-19T14:14:48;25.10;99.90
9167;DHT22;4618;48.818;9.088;2022-10-19T14:17:26;25.10;99.90
9167;DHT22;4618;48.818;9.088;2022-10-19T14:19:58;25.30;99.90
9167;DHT22;4618;48.818;9.088;2022-10-19T14:25:26;24.80;99.90
9167;DHT22;4618;48.818;9.088;2022-10-19T14:28:04;23.90;99.90
9167;DHT22;4618;48.818;9.088;2022-10-19T14:30:33;23.40;99.90
9167;DHT22;4618;48.818;9.088;2022-10-19T14:33:09;22.50;1.00
9167;DHT22;4618;48.818;9.088;2022-10-19T14:35:37;22.50;1.00
9167;DHT22;4618;48.818;9.088;2022-10-19T14:38:08;23.00;1.00
9167;DHT22;4618;48.818;9.088;2022-10-19T14:40:40;23.00;1.00
9167;DHT22;4618;48.818;9.088;2022-10-19T14:43:33;22.50;1.00
9167;DHT22;4618;48.818;9.088;2022-10-19T14:46:07;22.40;1.00
9167;DHT22;4618;48.818;9.088;2022-10-19T14:48:35;22.00;1.00
9167;DHT22;4618;48.818;9.088;2022-10-19T14:51:01;22.10;1.00
9167;DHT22;4618;48.818;9.088;2022-10-19T14:53:38;22.40;1.00
9167;DHT22;4618;48.818;9.088;2022-10-19T14:58:58;22.30;1.00
9167;DHT22;4618;48.818;9.088;2022-10-19T15:01:25;22.50;1.00
9167;DHT22;4618;48.818;9.088;2022-10-19T15:03:50;22.50;1.00
9167;DHT22;4618;48.818;9.088;2022-10-19T15:06:28;22.40;1.00
9167;DHT22;4618;48.818;9.088;2022-10-19T15:08:57;22.30;1.00
9167;DHT22;4618;48.818;9.088;2022-10-19T15:11:30;22.00;1.00
9167;DHT22;4618;48.818;9.088;2022-10-19T15:14:00;21.70;1.00
9167;DHT22;4618;48.818;9.088;2022-10-19T15:19:01;21.50;1.00
9167;DHT22;4618;48.818;9.088;2022-10-19T15:21:27;20.80;99.90
9167;DHT22;4618;48.818;9.088;2022-10-19T15:23:53;20.20;1.00
9167;DHT22;4618;48.818;9.088;2022-10-19T15:28:49;20.10;1.00
9167;DHT22;4618;48.818;9.088;2022-10-19T15:31:26;20.00;1.00
9167;DHT22;4618;48.818;9.088;2022-10-19T15:34:00;20.00;1.00
9167;DHT22;4618;48.818;9.088;2022-10-19T15:36:28;19.70;1.00
9167;DHT22;4618;48.818;9.088;2022-10-19T15:41:35;19.50;1.00
9167;DHT22;4618;48.818;9.088;2022-10-19T15:44:01;19.30;15.70
9167;DHT22;4618;48.818;9.088;2022-10-19T15:46:34;18.80;99.90
9167;DHT22;4618;48.818;9.088;2022-10-19T15:52:32;17.90;1.00
9167;DHT22;4618;48.818;9.088;2022-10-19T15:54:59;17.50;99.90
9167;DHT22;4618;48.818;9.088;2022-10-19T15:57:31;17.10;99.90
9167;DHT22;4618;48.818;9.088;2022-10-19T15:59:59;17.00;1.00
9167;DHT22;4618;48.818;9.088;2022-10-19T16:02:25;16.90;99.90
9167;DHT22;4618;48.818;9.088;2022-10-19T16:04:52;16.80;1.00
9167;DHT22;4618;48.818;9.088;2022-10-19T16:07:24;16.50;1.00
9167;DHT22;4618;48.818;9.088;2022-10-19T16:09:50;16.40;1.00
9167;DHT22;4618;48.818;9.088;2022-10-19T16:12:16;16.30;1.00
9167;DHT22;4618;48.818;9.088;2022-10-19T16:14:41;16.10;99.90
9167;DHT22;4618;48.818;9.088;2022-10-19T16:17:10;15.90;99.90
9167;DHT22;4618;48.818;9.088;2022-10-19T16:19:36;15.60;1.00
9167;DHT22;4618;48.818;9.088;2022-10-19T16:22:01;15.50;99.90
9167;DHT22;4618;48.818;9.088;2022-10-19T16:24:27;15.40;99.90
9167;DHT22;4618;48.818;9.088;2022-10-19T16:26:52;15.30;1.00
9167;DHT22;4618;48.818;9.088;2022-10-19T16:29:18;15.20;1.00
9167;DHT22;4618;48.818;9.088;2022-10-19T16:31:44;15.00;1.00
9167;DHT22;4618;48.818;9.088;2022-10-19T16:34:09;14.90;99.90
9167;DHT22;4618;48.818;9.088;2022-10-19T16:36:35;14.90;1.00
9167;DHT22;4618;48.818;9.088;2022-10-19T16:39:00;14.80;1.00
9167;DHT22;4618;48.818;9.088;2022-10-19T16:41:26;14.70;1.00
9167;DHT22;4618;48.818;9.088;2022-10-19T16:43:55;14.50;99.90
9167;DHT22;4618;48.818;9.088;2022-10-19T16:46:24;14.40;1.00
9167;DHT22;4618;48.818;9.088;2022-10-19T16:48:51;14.40;1.00
9167;DHT22;4618;48.818;9.088;2022-10-19T16:51:23;14.30;1.00
9167;DHT22;4618;48.818;9.088;2022-10-19T16:53:51;14.30;1.00
9167;DHT22;4618;48.818;9.088;2022-10-19T16:56:17;14.20;90.00
9167;DHT22;4618;48.818;9.088;2022-10-19T16:58:43;14.20;99.90
9167;DHT22;4618;48.818;9.088;2022-10-19T17:01:10;14.20;99.90
9167;DHT22;4618;48.818;9.088;2022-10-19T17:03:36;14.20;99.90
9167;DHT22;4618;48.818;9.088;2022-10-19T17:06:03;14.10;99.90
9167;DHT22;4618;48.818;9.088;2022-10-19T17:08:30;14.00;99.90
9167;DHT22;4618;48.818;9.088;2022-10-19T17:10:56;14.00;1.00
9167;DHT22;4618;48.818;9.088;2022-10-19T17:13:22;13.90;1.00
9167;DHT22;4618;48.818;9.088;2022-10-19T17:15:48;13.90;1.00
9167;DHT22;4618;48.818;9.088;2022-10-19T17:18:13;13.80;1.00
9167;DHT22;4618;48.818;9.088;2022-10-19T17:20:39;13.70;12.30
9167;DHT22;4618;48.818;9.088;2022-10-19T17:23:04;13.60;99.90
9167;DHT22;4618;48.818;9.088;2022-10-19T17:25:30;13.60;99.90
9167;DHT22;4618;48.818;9.088;2022-10-19T17:27:55;13.50;99.90
9167;DHT22;4618;48.818;9.088;2022-10-19T17:30:21;13.50;99.90
9167;DHT22;4618;48.818;9.088;2022-10-19T17:32:47;13.40;1.00
9167;DHT22;4618;48.818;9.088;2022-10-19T17:35:12;13.40;1.00
9167;DHT22;4618;48.818;9.088;2022-10-19T17:37:38;13.30;1.00
9167;DHT22;4618;48.818;9.088;2022-10-19T17:40:04;13.30;1.00
9167;DHT22;4618;48.818;9.088;2022-10-19T17:42:30;13.20;1.00
9167;DHT22;4618;48.818;9.088;2022-10-19T17:44:56;13.20;1.00
9167;DHT22;4618;48.818;9.088;2022-10-19T17:47:22;13.10;99.90
9167;DHT22;4618;48.818;9.088;2022-10-19T17:49:47;13.00;99.90
9167;DHT22;4618;48.818;9.088;2022-10-19T17:52:13;12.90;99.90
9167;DHT22;4618;48.818;9.088;2022-10-19T17:54:39;12.90;99.90
9167;DHT22;4618;48.818;9.088;2022-10-19T17:57:04;12.90;99.90
9167;DHT22;4618;48.818;9.088;2022-10-19T17:59:30;13.00;99.90
9167;DHT22;4618;48.818;9.088;2022-10-19T18:01:55;12.90;1.00
9167;DHT22;4618;48.818;9.088;2022-10-19T18:04:21;12.80;1.00
9167;DHT22;4618;48.818;9.088;2022-10-19T18:06:47;12.90;35.70
9167;DHT22;4618;48.818;9.088;2022-10-19T18:09:12;12.80;1.00
9167;DHT22;4618;48.818;9.088;2022-10-19T18:11:41;12.80;1.00
9167;DHT22;4618;48.818;9.088;2022-10-19T18:14:08;12.70;52.80
9167;DHT22;4618;48.818;9.088;2022-10-19T18:16:39;12.60;99.90
9167;DHT22;4618;48.818;9.088;2022-10-19T18:19:07;12.60;99.90
9167;DHT22;4618;48.818;9.088;2022-10-19T18:21:36;12.60;99.90
9167;DHT22;4618;48.818;9.088;2022-10-19T18:24:06;12.60;99.90
9167;DHT22;4618;48.818;9.088;2022-10-19T18:26:33;12.70;99.90
9167;DHT22;4618;48.818;9.088;2022-10-19T18:29:00;12.70;99.90
9167;DHT22;4618;48.818;9.088;2022-10-19T18:31:28;12.80;99.90
9167;DHT22;4618;48.818;9.088;2022-10-19T18:34:00;12.80;1.00
9167;DHT22;4618;48.818;9.088;2022-10-19T18:36:26;12.70;1.00
9167;DHT22;4618;48.818;9.088;2022-10-19T18:38:54;12.70;1.00
9167;DHT22;4618;48.818;9.088;2022-10-19T18:41:21;12.50;1.00
9167;DHT22;4618;48.818;9.088;2022-10-19T18:43:52;12.50;26.00
9167;DHT22;4618;48.818;9.088;2022-10-19T18:46:19;12.50;99.90